Time;durP1;ratioP1;P1;durP2;ratioP2;P2;SDS_P1;SDS_P2;PMS_P1;PMS_P2;Temp;Humidity;BMP_temperature;BMP_pressure;BME280_temperature;BME280_humidity;BME280_pressure;Samples;Min_cycle;Max_cycle;Signal;HPM_P1;HPM_P2
2023/05/10 00:00:22;;;;;;;25.20;11.55;;;13.40;99.90;;;;;;5069757;28;20028;-63
2023/05/10 00:02:48;;;;;;;29.58;12.93;;;13.40;99.90;;;;;;5064783;28;20024;-62
2023/05/10 00:05:13;;;;;;;30.10;12.20;;;13.40;99.90;;;;;;5068190;28;20021;-62
2023/05/10 00:07:39;;;;;;;30.55;12.60;;;13.40;99.90;;;;;;5068211;28;20515;-62
2023/05/10 00:10:05;;;;;;;31.38;12.68;;;13.40;99.90;;;;;;5065629;28;20025;-63
2023/05/10 00:12:31;;;;;;;29.90;12.68;;;13.40;99.90;;;;;;5071759;28;20496;-58
2023/05/10 00:14:56;;;;;;;30.02;12.65;;;13.40;99.90;;;;;;5066234;28;20040;-63
2023/05/10 00:17:22;;;;;;;30.83;13.32;;;13.40;99.90;;;;;;5061244;28;20021;-61
2023/05/10 00:19:48;;;;;;;28.25;11.70;;;13.40;99.90;;;;;;5068206;28;20396;-62
2023/05/10 00:22:13;;;;;;;33.42;14.35;;;13.40;99.90;;;;;;5072096;28;20021;-63
2023/05/10 00:24:39;;;;;;;40.53;13.60;;;13.40;99.90;;;;;;5067506;28;20112;-60
2023/05/10 00:27:04;;;;;;;31.45;13.52;;;13.40;99.90;;;;;;5066030;28;20545;-62
2023/05/10 00:29:31;;;;;;;34.28;13.60;;;13.50;99.90;;;;;;5066255;28;20028;-59
2023/05/10 00:31:57;;;;;;;39.25;15.35;;;13.50;99.90;;;;;;5063669;28;20078;-62
2023/05/10 00:34:22;;;;;;;33.13;13.32;;;13.50;99.90;;;;;;5067731;28;20036;-60
2023/05/10 00:36:48;;;;;;;37.83;13.95;;;13.50;99.90;;;;;;5062644;28;20033;-63
2023/05/10 00:39:13;;;;;;;35.45;14.30;;;13.50;99.90;;;;;;5066039;28;20504;-60
2023/05/10 00:41:39;;;;;;;33.20;13.13;;;13.40;99.90;;;;;;5068762;28;20043;-62
2023/05/10 00:44:05;;;;;;;36.42;15.73;;;13.50;99.90;;;;;;5069843;28;20021;-62
2023/05/10 00:46:31;;;;;;;30.83;13.15;;;13.50;99.90;;;;;;5066183;28;20024;-64
2023/05/10 00:48:57;;;;;;;41.03;16.80;;;13.50;99.90;;;;;;5069595;28;20036;-63
2023/05/10 00:51:23;;;;;;;34.83;14.50;;;13.50;99.90;;;;;;5063241;28;20465;-64
2023/05/10 00:53:49;;;;;;;41.53;15.45;;;13.50;99.90;;;;;;5072812;28;20032;-62
2023/05/10 00:56:15;;;;;;;37.15;16.02;;;13.50;99.90;;;;;;5070508;28;20055;-61
2023/05/10 00:58:41;;;;;;;38.03;14.38;;;13.50;99.90;;;;;;5069056;28;20017;-62
2023/05/10 01:01:08;;;;;;;39.30;15.57;;;13.50;99.90;;;;;;5067019;28;20693;-63
2023/05/10 01:03:35;;;;;;;45.03;16.25;;;13.50;99.90;;;;;;5069784;28;20027;-62
2023/05/10 01:06:00;;;;;;;38.85;16.77;;;13.60;99.90;;;;;;5075886;28;20412;-62
2023/05/10 01:08:27;;;;;;;41.20;15.60;;;13.50;99.90;;;;;;5069721;28;20028;-62
2023/05/10 01:10:53;;;;;;;46.63;16.17;;;13.50;99.90;;;;;;5065111;28;20036;-62
2023/05/10 01:13:35;;;;;;;39.47;14.40;;;13.50;99.90;;;;;;5064201;28;20103;-61
2023/05/10 01:16:02;;;;;;;38.30;14.23;;;13.60;99.90;;;;;;5064979;28;20120;-60
2023/05/10 01:18:32;;;;;;;43.15;17.02;;;13.60;99.90;;;;;;5066754;28;20081;-61
2023/05/10 01:21:13;;;;;;;46.20;16.50;;;13.50;99.90;;;;;;5066539;28;20029;-60
2023/05/10 01:23:41;;;;;;;41.63;16.95;;;13.60;99.90;;;;;;5069091;28;20024;-60
2023/05/10 01:26:31;;;;;;;53.47;16.77;;;13.60;99.90;;;;;;5075164;28;20075;-62
2023/05/10 01:29:19;;;;;;;43.75;16.52;;;13.60;99.90;;;;;;5066968;28;20050;-61
2023/05/10 01:32:04;;;;;;;37.05;14.88;;;13.60;99.90;;;;;;5071290;28;20518;-61
2023/05/10 01:34:39;;;;;;;45.15;18.20;;;13.60;99.90;;;;;;5072893;28;20032;-58
2023/05/10 01:37:20;;;;;;;43.85;16.00;;;13.60;99.90;;;;;;5069903;28;20036;-61
2023/05/10 01:40:01;;;;;;;45.75;16.23;;;13.60;99.90;;;;;;5064790;28;20064;-59
2023/05/10 01:42:33;;;;;;;38.60;14.57;;;13.60;99.90;;;;;;5067237;28;20017;-61
2023/05/10 01:45:07;;;;;;;36.38;13.60;;;13.60;99.90;;;;;;5066826;28;20092;-59
2023/05/10 01:47:43;;;;;;;32.08;13.70;;;13.60;99.90;;;;;;5069112;28;20024;-62
2023/05/10 01:50:15;;;;;;;38.35;13.65;;;13.60;99.90;;;;;;5071750;28;20093;-61
2023/05/10 01:52:49;;;;;;;31.83;13.85;;;13.60;99.90;;;;;;5071700;28;20643;-63
2023/05/10 01:55:16;;;;;;;;;;;13.60;99.90;;;;;;5076568;28;20519;-60
2023/05/10 01:57:44;;;;;;;35.00;13.38;;;13.60;99.90;;;;;;5070948;28;19952;-60
2023/05/10 02:00:11;;;;;;;36.58;13.73;;;13.60;99.90;;;;;;5074958;28;20105;-61
2023/05/10 02:02:39;;;;;;;34.88;14.25;;;13.60;99.90;;;;;;5064554;28;20609;-61
2023/05/10 02:05:07;;;;;;;33.08;14.75;;;13.60;99.90;;;;;;5072521;28;20041;-64
2023/05/10 02:07:36;;;;;;;32.50;13.23;;;13.60;99.90;;;;;;5065131;28;20032;-61
2023/05/10 02:10:04;;;;;;;30.48;12.60;;;13.60;99.90;;;;;;5070738;28;20491;-63
2023/05/10 02:12:32;;;;;;;37.17;14.27;;;13.60;99.90;;;;;;5070407;28;20040;-63
2023/05/10 02:15:01;;;;;;;34.70;13.65;;;13.60;99.90;;;;;;5069531;28;20056;-63
2023/05/10 02:17:28;;;;;;;36.20;13.60;;;13.50;99.90;;;;;;5069309;28;20480;-61
2023/05/10 02:19:55;;;;;;;36.83;14.00;;;13.50;99.90;;;;;;5069210;28;20417;-62
2023/05/10 02:22:21;;;;;;;31.48;12.82;;;13.50;99.90;;;;;;5071600;28;20081;-60
2023/05/10 02:24:49;;;;;;;40.45;14.20;;;13.50;99.90;;;;;;5072107;28;20024;-62
2023/05/10 02:27:17;;;;;;;38.83;13.45;;;13.50;99.90;;;;;;5072189;28;20111;-62
2023/05/10 02:29:42;;;;;;;38.30;14.18;;;13.50;99.90;;;;;;5069287;28;20032;-62
2023/05/10 02:32:10;;;;;;;38.92;13.55;;;13.50;99.90;;;;;;5060216;28;20094;-61
2023/05/10 02:34:36;;;;;;;43.03;14.13;;;13.50;99.90;;;;;;5069891;28;20076;-59
2023/05/10 02:37:03;;;;;;;43.20;14.25;;;13.50;99.90;;;;;;5066730;28;20039;-61
2023/05/10 02:39:29;;;;;;;42.72;14.77;;;13.60;99.90;;;;;;5072665;28;20029;-61
2023/05/10 02:41:56;;;;;;;38.75;13.35;;;13.60;99.90;;;;;;5081168;28;20346;-62
2023/05/10 02:44:23;;;;;;;44.72;15.15;;;13.60;99.90;;;;;;5071321;28;20021;-62
2023/05/10 02:46:49;;;;;;;39.22;13.70;;;13.60;99.90;;;;;;5074560;28;20051;-61
2023/05/10 02:49:15;;;;;;;40.03;14.27;;;13.50;99.90;;;;;;5073955;28;20512;-61
2023/05/10 02:51:46;;;;;;;43.70;14.98;;;13.60;99.90;;;;;;5072153;28;20024;-61
2023/05/10 02:54:15;;;;;;;40.50;13.38;;;13.60;99.90;;;;;;5071926;28;20035;-60
2023/05/10 02:56:46;;;;;;;42.03;15.77;;;13.60;99.90;;;;;;5073036;28;20040;-62
2023/05/10 02:59:12;;;;;;;51.33;15.45;;;13.60;99.90;;;;;;5074898;28;20037;-62
2023/05/10 03:01:38;;;;;;;35.03;12.68;;;13.60;99.90;;;;;;5069186;28;20400;-61
2023/05/10 03:04:03;;;;;;;36.53;14.48;;;13.70;99.90;;;;;;5076359;28;20429;-60
2023/05/10 03:06:29;;;;;;;32.80;12.77;;;13.70;99.90;;;;;;5074179;28;20469;-61
2023/05/10 03:08:55;;;;;;;32.40;11.98;;;13.70;99.90;;;;;;5074347;28;20043;-62
2023/05/10 03:11:29;;;;;;;36.83;12.90;;;13.70;99.90;;;;;;5070098;28;20179;-60
2023/05/10 03:14:23;;;;;;;31.23;12.35;;;13.60;99.90;;;;;;5067375;28;20479;-62
2023/05/10 03:17:10;;;;;;;37.72;12.30;;;13.60;99.90;;;;;;5070921;28;20032;-58
2023/05/10 03:20:03;;;;;;;35.13;12.93;;;13.70;99.90;;;;;;5066444;28;20120;-62
2023/05/10 03:22:45;;;;;;;30.60;12.82;;;13.70;99.90;;;;;;5069764;28;20020;-61
2023/05/10 03:25:12;;;;;;;34.63;12.38;;;13.70;99.90;;;;;;5066488;28;20517;-60
2023/05/10 03:27:40;;;;;;;33.30;12.95;;;13.70;99.90;;;;;;5072181;28;20078;-62
2023/05/10 03:30:08;;;;;;;31.67;12.48;;;13.60;99.90;;;;;;5067921;28;20044;-63
2023/05/10 03:32:34;;;;;;;42.53;14.40;;;13.70;99.90;;;;;;5074920;28;20449;-64
2023/05/10 03:35:00;;;;;;;36.17;13.38;;;13.70;99.90;;;;;;5074998;28;20115;-61
2023/05/10 03:37:25;;;;;;;40.67;14.93;;;13.70;99.90;;;;;;5072856;28;20025;-64
2023/05/10 03:39:51;;;;;;;42.72;15.50;;;13.70;99.90;;;;;;5063748;28;20020;-63
2023/05/10 03:42:17;;;;;;;42.15;14.98;;;13.70;99.90;;;;;;5069382;28;20019;-64
2023/05/10 03:44:43;;;;;;;39.72;14.80;;;13.70;99.90;;;;;;5066230;28;20051;-61
2023/05/10 03:47:08;;;;;;;40.92;15.88;;;13.70;99.90;;;;;;5067974;28;20463;-62
2023/05/10 03:49:34;;;;;;;37.58;14.02;;;13.70;99.90;;;;;;5064856;28;20048;-62
2023/05/10 03:51:59;;;;;;;39.97;14.40;;;13.70;99.90;;;;;;5064681;28;20028;-63
2023/05/10 03:54:25;;;;;;;42.05;14.32;;;13.70;99.90;;;;;;5067542;28;20024;-61
2023/05/10 03:56:51;;;;;;;40.30;15.05;;;13.60;99.90;;;;;;5071009;28;20020;-62
2023/05/10 03:59:16;;;;;;;35.65;14.50;;;13.60;99.90;;;;;;5071873;28;20051;-61
2023/05/10 04:01:42;;;;;;;36.95;13.82;;;13.60;99.90;;;;;;5071920;28;20486;-62
2023/05/10 04:04:07;;;;;;;35.63;14.07;;;13.60;99.90;;;;;;5073553;28;20031;-62
2023/05/10 04:06:33;;;;;;;38.83;13.57;;;13.60;99.90;;;;;;5073253;28;20024;-63
2023/05/10 04:09:04;;;;;;;38.28;13.68;;;13.60;99.90;;;;;;5066117;28;20029;-62
2023/05/10 04:11:29;;;;;;;36.42;14.80;;;13.60;99.90;;;;;;5066423;28;20356;-61
2023/05/10 04:13:55;;;;;;;42.53;13.40;;;13.50;99.90;;;;;;5067788;28;20024;-59
2023/05/10 04:16:20;;;;;;;41.55;17.27;;;13.50;99.90;;;;;;5073930;28;20025;-61
2023/05/10 04:18:46;;;;;;;48.50;17.15;;;13.50;99.90;;;;;;5071728;28;20047;-60
2023/05/10 04:21:14;;;;;;;44.60;17.85;;;13.60;99.90;;;;;;5068121;28;20021;-59
2023/05/10 04:23:40;;;;;;;54.97;18.02;;;13.50;99.90;;;;;;5069855;28;20028;-60
2023/05/10 04:26:06;;;;;;;54.83;18.02;;;13.50;99.90;;;;;;5069221;28;20028;-59
2023/05/10 04:28:32;;;;;;;42.78;17.90;;;13.50;99.90;;;;;;5065710;28;20101;-60
2023/05/10 04:31:08;;;;;;;49.25;19.45;;;13.50;99.90;;;;;;5070857;28;20017;-62
2023/05/10 04:33:35;;;;;;;46.45;18.85;;;13.60;99.90;;;;;;5071693;28;20395;-63
2023/05/10 04:36:01;;;;;;;59.55;21.02;;;13.50;99.90;;;;;;5074432;28;20379;-60
2023/05/10 04:38:27;;;;;;;53.30;20.05;;;13.50;99.90;;;;;;5072922;28;20384;-61
2023/05/10 04:40:53;;;;;;;67.88;21.50;;;13.50;99.90;;;;;;5063449;28;20046;-62
2023/05/10 04:43:18;;;;;;;48.92;19.20;;;13.40;99.90;;;;;;5066556;28;20052;-62
2023/05/10 04:45:44;;;;;;;56.38;21.23;;;13.50;99.90;;;;;;5070580;28;20091;-61
2023/05/10 04:48:09;;;;;;;55.72;21.05;;;13.50;99.90;;;;;;5070731;28;20027;-62
2023/05/10 04:50:35;;;;;;;60.97;22.70;;;13.50;99.90;;;;;;5066977;28;20487;-63
2023/05/10 04:53:01;;;;;;;55.38;21.80;;;13.50;99.90;;;;;;5067378;28;20484;-63
2023/05/10 04:55:26;;;;;;;57.65;21.45;;;13.50;99.90;;;;;;5073722;28;20035;-63
2023/05/10 04:57:52;;;;;;;61.78;21.75;;;13.50;99.90;;;;;;5067997;28;20475;-63
2023/05/10 05:00:18;;;;;;;59.40;22.55;;;13.50;99.90;;;;;;5070124;28;20069;-63
2023/05/10 05:02:45;;;;;;;51.45;20.63;;;13.50;99.90;;;;;;5069959;28;20119;-59
2023/05/10 05:05:11;;;;;;;58.25;21.60;;;13.50;99.90;;;;;;5075231;28;20468;-60
2023/05/10 05:07:38;;;;;;;65.00;22.13;;;13.50;99.90;;;;;;5062865;28;20065;-63
2023/05/10 05:10:08;;;;;;;58.88;21.73;;;13.50;99.90;;;;;;5061452;28;20025;-61
2023/05/10 05:12:34;;;;;;;58.22;21.88;;;13.40;99.90;;;;;;5067510;28;20025;-62
2023/05/10 05:15:00;;;;;;;56.33;19.00;;;13.40;99.90;;;;;;5066688;28;20029;-62
2023/05/10 05:17:25;;;;;;;54.38;20.98;;;13.40;99.90;;;;;;5066026;28;20035;-62
2023/05/10 05:19:51;;;;;;;52.42;19.50;;;13.50;99.90;;;;;;5065840;28;20028;-62
2023/05/10 05:22:17;;;;;;;54.95;20.98;;;13.50;99.90;;;;;;5067126;28;20037;-60
2023/05/10 05:24:42;;;;;;;48.15;18.63;;;13.50;99.90;;;;;;5064973;28;20037;-62
2023/05/10 05:27:08;;;;;;;55.58;19.20;;;13.50;99.90;;;;;;5068011;28;20146;-63
2023/05/10 05:29:33;;;;;;;56.08;20.48;;;13.50;99.90;;;;;;5066855;28;20082;-64
2023/05/10 05:31:59;;;;;;;52.55;18.40;;;13.50;99.90;;;;;;5065885;28;20501;-63
2023/05/10 05:34:25;;;;;;;48.88;19.15;;;13.50;99.90;;;;;;5067108;28;20039;-64
2023/05/10 05:36:51;;;;;;;51.80;20.45;;;13.40;99.90;;;;;;5069217;28;20020;-62
2023/05/10 05:39:17;;;;;;;44.20;18.85;;;13.40;99.90;;;;;;5064599;28;20389;-61
2023/05/10 05:41:42;;;;;;;59.05;21.52;;;13.40;99.90;;;;;;5070147;28;20028;-64
2023/05/10 05:44:08;;;;;;;46.97;18.80;;;13.40;99.90;;;;;;5062212;28;20021;-64
2023/05/10 05:46:33;;;;;;;45.40;17.98;;;13.50;99.90;;;;;;5069370;28;20111;-62
2023/05/10 05:48:59;;;;;;;42.88;17.08;;;13.50;99.90;;;;;;5064495;28;20031;-64
2023/05/10 05:51:25;;;;;;;48.42;19.20;;;13.50;99.90;;;;;;5066868;28;20021;-62
2023/05/10 05:53:50;;;;;;;50.47;18.40;;;13.50;99.90;;;;;;5068052;28;20032;-65
2023/05/10 05:56:17;;;;;;;37.85;17.33;;;13.50;99.90;;;;;;5063043;28;20140;-64
2023/05/10 05:58:43;;;;;;;43.40;17.95;;;13.60;99.90;;;;;;5066259;28;20009;-65
2023/05/10 06:01:08;;;;;;;47.33;18.17;;;13.60;99.90;;;;;;5062978;28;20777;-64
2023/05/10 06:03:34;;;;;;;47.53;17.48;;;13.60;99.90;;;;;;5066489;28;20042;-64
2023/05/10 06:05:59;;;;;;;45.55;19.95;;;13.60;99.90;;;;;;5061956;28;20028;-60
2023/05/10 06:08:25;;;;;;;40.05;17.45;;;13.70;99.90;;;;;;5068397;28;20028;-61
2023/05/10 06:10:51;;;;;;;41.15;18.02;;;13.50;99.90;;;;;;5070123;28;20021;-64
2023/05/10 06:13:16;;;;;;;45.33;18.05;;;13.60;99.90;;;;;;5083889;28;20048;-63
2023/05/10 06:15:42;;;;;;;48.63;18.83;;;13.60;99.90;;;;;;5067815;28;20119;-64
2023/05/10 06:18:07;;;;;;;50.28;19.58;;;13.60;99.90;;;;;;5069898;28;20491;-63
2023/05/10 06:20:33;;;;;;;42.70;18.70;;;13.70;99.90;;;;;;5068190;28;20052;-63
2023/05/10 06:22:59;;;;;;;45.10;19.52;;;13.70;99.90;;;;;;5078207;28;20058;-64
2023/05/10 06:25:24;;;;;;;45.08;17.10;;;13.70;99.90;;;;;;5065781;28;20407;-63
2023/05/10 06:27:50;;;;;;;37.17;17.23;;;13.70;99.90;;;;;;5070989;28;20059;-63
2023/05/10 06:30:16;;;;;;;44.85;17.30;;;13.70;99.90;;;;;;5070643;28;20040;-62
2023/05/10 06:32:43;;;;;;;33.55;17.00;;;13.60;99.90;;;;;;5074641;28;20056;-64
2023/05/10 06:35:09;;;;;;;45.70;17.52;;;13.70;99.90;;;;;;5070349;28;20051;-64
2023/05/10 06:37:35;;;;;;;46.63;18.52;;;13.70;99.90;;;;;;5072629;28;20495;-64
2023/05/10 06:40:01;;;;;;;38.75;17.40;;;13.70;99.90;;;;;;5069932;28;20499;-63
2023/05/10 06:42:27;;;;;;;45.85;19.20;;;13.60;99.90;;;;;;5067988;28;20023;-62
2023/05/10 06:44:52;;;;;;;47.65;19.75;;;13.60;99.90;;;;;;5070764;28;20028;-63
2023/05/10 06:47:18;;;;;;;37.42;17.33;;;13.50;99.90;;;;;;5068543;28;20116;-63
2023/05/10 06:49:44;;;;;;;42.00;17.13;;;13.50;99.90;;;;;;5071025;28;20040;-63
2023/05/10 06:52:09;;;;;;;40.83;16.70;;;13.40;99.90;;;;;;5073420;28;20041;-63
2023/05/10 06:54:35;;;;;;;43.85;17.05;;;13.40;99.90;;;;;;5067698;28;20025;-62
2023/05/10 06:57:00;;;;;;;39.78;16.40;;;13.40;99.90;;;;;;5070155;28;20040;-62
2023/05/10 06:59:26;;;;;;;44.00;17.67;;;13.50;99.90;;;;;;5069633;28;20022;-61
2023/05/10 07:01:51;;;;;;;42.67;18.08;;;13.50;99.90;;;;;;5064925;28;20024;-60
2023/05/10 07:04:17;;;;;;;46.22;17.92;;;13.50;99.90;;;;;;5070150;28;20028;-62
2023/05/10 07:06:43;;;;;;;44.17;15.93;;;13.50;99.90;;;;;;5074332;28;20119;-61
2023/05/10 07:09:08;;;;;;;36.70;17.02;;;13.60;99.90;;;;;;5062909;28;20512;-60
2023/05/10 07:11:34;;;;;;;46.35;16.83;;;13.70;99.90;;;;;;5074690;28;20489;-61
2023/05/10 07:14:00;;;;;;;45.72;16.90;;;13.60;99.90;;;;;;5066517;28;20028;-61
2023/05/10 07:16:26;;;;;;;44.38;17.30;;;13.70;99.90;;;;;;5066340;28;20060;-60
2023/05/10 07:18:52;;;;;;;42.92;16.40;;;13.70;99.90;;;;;;5069768;28;20099;-62
2023/05/10 07:21:18;;;;;;;39.55;17.02;;;13.70;99.90;;;;;;5062300;28;20677;-61
2023/05/10 07:23:44;;;;;;;42.70;17.63;;;13.70;99.90;;;;;;5057424;28;20108;-62
2023/05/10 07:26:10;;;;;;;40.35;16.45;;;13.70;99.90;;;;;;5067923;28;20300;-61
2023/05/10 07:28:37;;;;;;;36.72;15.82;;;13.70;99.90;;;;;;5061845;28;20079;-62
2023/05/10 07:31:03;;;;;;;37.92;15.00;;;13.70;99.90;;;;;;5067257;28;20025;-60
2023/05/10 07:33:28;;;;;;;44.08;18.05;;;13.80;99.90;;;;;;5064112;28;20098;-62
2023/05/10 07:35:54;;;;;;;48.58;17.25;;;13.80;99.90;;;;;;5062827;28;20064;-59
2023/05/10 07:38:19;;;;;;;43.42;17.17;;;13.90;99.90;;;;;;5066886;28;20044;-60
2023/05/10 07:40:45;;;;;;;40.42;15.55;;;13.90;99.90;;;;;;5071041;28;20399;-62
2023/05/10 07:43:10;;;;;;;44.70;16.17;;;13.70;99.90;;;;;;5072858;28;20025;-62
2023/05/10 07:45:36;;;;;;;46.78;17.17;;;13.80;99.90;;;;;;5071187;28;20020;-61
2023/05/10 07:48:02;;;;;;;36.70;16.17;;;13.90;99.90;;;;;;5070611;28;20041;-61
2023/05/10 07:50:27;;;;;;;38.53;14.05;;;14.00;99.90;;;;;;5070039;28;20028;-60
2023/05/10 07:52:53;;;;;;;32.22;12.25;;;14.00;99.90;;;;;;5070422;28;20036;-62
2023/05/10 07:55:20;;;;;;;32.83;12.65;;;14.10;99.90;;;;;;5070442;28;20056;-60
2023/05/10 07:57:46;;;;;;;32.35;11.50;;;14.20;99.90;;;;;;5071011;28;20040;-59
2023/05/10 08:00:16;;;;;;;32.00;12.30;;;14.20;99.90;;;;;;5065462;28;20373;-59
2023/05/10 08:02:42;;;;;;;28.30;11.20;;;14.20;99.90;;;;;;5069931;28;20043;-60
2023/05/10 08:05:07;;;;;;;31.80;10.95;;;14.30;99.90;;;;;;5070108;28;20028;-61
2023/05/10 08:07:33;;;;;;;36.13;13.57;;;14.30;99.90;;;;;;5068805;28;20029;-61
2023/05/10 08:09:59;;;;;;;30.75;10.23;;;14.50;99.90;;;;;;5073803;28;20027;-59
2023/05/10 08:12:24;;;;;;;21.25;8.80;;;14.40;99.90;;;;;;5065819;28;21061;-60
2023/05/10 08:14:50;;;;;;;22.20;8.75;;;14.50;99.90;;;;;;5068742;28;20079;-60
2023/05/10 08:17:15;;;;;;;17.27;7.85;;;14.40;99.90;;;;;;5062789;28;20021;-58
2023/05/10 08:19:41;;;;;;;20.58;8.57;;;14.40;99.90;;;;;;5071494;28;20498;-60
2023/05/10 08:22:06;;;;;;;21.92;8.15;;;14.50;99.90;;;;;;5066700;28;20027;-60
2023/05/10 08:24:32;;;;;;;22.80;8.85;;;14.50;99.90;;;;;;5065751;28;20128;-62
2023/05/10 08:26:57;;;;;;;16.70;8.05;;;14.40;99.90;;;;;;5074136;28;20392;-60
2023/05/10 08:29:23;;;;;;;15.88;8.60;;;14.40;99.90;;;;;;5069533;28;20064;-59
2023/05/10 08:31:48;;;;;;;11.60;6.25;;;14.50;99.90;;;;;;5065688;28;20052;-59
2023/05/10 08:34:14;;;;;;;12.07;5.95;;;14.50;99.90;;;;;;5070032;28;20040;-55
2023/05/10 08:36:40;;;;;;;12.38;5.90;;;14.50;99.90;;;;;;5067556;28;20414;-59
2023/05/10 08:39:05;;;;;;;8.27;4.95;;;14.60;99.90;;;;;;5068104;28;20028;-58
2023/05/10 08:41:34;;;;;;;8.10;4.07;;;14.50;99.90;;;;;;5069061;28;20027;-60
2023/05/10 08:44:05;;;;;;;9.68;3.97;;;14.40;99.90;;;;;;5067271;28;20021;-60
2023/05/10 08:46:33;;;;;;;10.13;4.65;;;14.50;99.90;;;;;;5069655;28;20054;-59
2023/05/10 08:49:02;;;;;;;14.63;6.97;;;14.50;99.90;;;;;;5067621;28;20108;-58
2023/05/10 08:51:33;;;;;;;13.82;6.68;;;14.40;99.90;;;;;;5064623;28;20101;-59
2023/05/10 08:53:59;;;;;;;14.30;6.50;;;14.30;99.90;;;;;;5069391;28;20040;-60
2023/05/10 08:56:25;;;;;;;17.83;7.07;;;14.30;99.90;;;;;;5068343;28;20081;-59
2023/05/10 08:58:51;;;;;;;16.73;8.13;;;14.30;99.90;;;;;;5067978;28;20028;-60
2023/05/10 09:01:18;;;;;;;22.85;8.63;;;14.30;99.90;;;;;;5063913;28;20089;-60
2023/05/10 09:03:45;;;;;;;14.85;7.85;;;14.40;99.90;;;;;;5069422;28;20078;-60
2023/05/10 09:06:12;;;;;;;18.38;7.95;;;14.40;99.90;;;;;;5068457;28;20032;-59
2023/05/10 09:08:39;;;;;;;16.15;7.07;;;14.60;99.90;;;;;;5069092;28;20483;-59
2023/05/10 09:11:05;;;;;;;16.55;8.00;;;14.80;99.90;;;;;;5068664;28;20077;-60
2023/05/10 09:13:31;;;;;;;16.45;7.82;;;14.80;99.90;;;;;;5066467;28;20072;-59
2023/05/10 09:15:58;;;;;;;16.20;7.47;;;14.80;99.90;;;;;;5067494;28;20025;-59
2023/05/10 09:18:23;;;;;;;13.00;6.80;;;14.90;99.90;;;;;;5069016;28;20070;-62
2023/05/10 09:20:49;;;;;;;14.85;6.28;;;14.90;99.90;;;;;;5067428;28;20029;-60
2023/05/10 09:23:15;;;;;;;11.73;6.72;;;14.90;99.90;;;;;;5069758;28;20476;-59
2023/05/10 09:25:43;;;;;;;12.55;6.20;;;15.10;99.90;;;;;;5064192;28;20028;-61
2023/05/10 09:28:09;;;;;;;9.93;5.30;;;15.30;99.90;;;;;;5062966;28;20201;-59
2023/05/10 09:30:36;;;;;;;11.38;5.60;;;15.40;99.90;;;;;;5062997;28;20484;-62
2023/05/10 09:33:02;;;;;;;8.98;4.55;;;15.40;99.90;;;;;;5068185;28;20025;-64
2023/05/10 09:35:30;;;;;;;7.45;3.80;;;15.20;99.90;;;;;;5067070;28;20515;-62
2023/05/10 09:38:02;;;;;;;7.90;3.90;;;15.10;99.90;;;;;;5062871;28;20543;-63
2023/05/10 09:40:29;;;;;;;10.60;3.85;;;15.10;99.90;;;;;;5067700;28;20040;-61
2023/05/10 09:43:08;;;;;;;11.15;4.35;;;14.90;99.90;;;;;;5063073;28;20048;-65
2023/05/10 09:45:36;;;;;;;16.17;5.68;;;14.90;99.90;;;;;;5069070;28;20822;-60
2023/05/10 09:48:02;;;;;;;17.50;6.57;;;14.70;99.90;;;;;;5069496;28;20035;-62
2023/05/10 09:50:29;;;;;;;17.33;7.25;;;14.60;99.90;;;;;;5061886;28;20036;-63
2023/05/10 09:53:03;;;;;;;15.85;7.60;;;14.60;99.90;;;;;;5065744;28;20036;-63
2023/05/10 09:55:39;;;;;;;28.95;10.38;;;14.60;99.90;;;;;;5067724;28;20123;-64
2023/05/10 09:58:09;;;;;;;25.60;10.15;;;14.50;99.90;;;;;;5063786;28;20029;-64
2023/05/10 10:00:36;;;;;;;29.48;9.57;;;14.50;99.90;;;;;;5061595;28;20016;-62
2023/05/10 10:03:03;;;;;;;21.98;10.00;;;14.70;99.90;;;;;;5065765;28;20021;-64
2023/05/10 10:05:29;;;;;;;23.67;9.43;;;14.90;99.90;;;;;;5063842;28;20100;-62
2023/05/10 10:07:59;;;;;;;16.40;8.48;;;15.00;99.90;;;;;;5064429;28;20415;-62
2023/05/10 10:10:26;;;;;;;18.13;7.75;;;15.20;99.90;;;;;;5063685;28;20120;-65
2023/05/10 10:12:52;;;;;;;19.70;7.90;;;15.50;99.90;;;;;;5070127;28;20032;-64
2023/05/10 10:15:18;;;;;;;19.13;7.50;;;15.80;99.90;;;;;;5067757;28;20519;-61
2023/05/10 10:17:45;;;;;;;14.27;6.65;;;15.80;99.90;;;;;;5069445;28;20538;-62
2023/05/10 10:20:11;;;;;;;14.43;6.88;;;15.90;99.90;;;;;;5066316;28;20526;-63
2023/05/10 10:22:37;;;;;;;19.85;6.75;;;16.40;99.90;;;;;;5067716;28;20104;-62
2023/05/10 10:25:04;;;;;;;10.25;6.13;;;16.80;99.90;;;;;;5074077;28;20031;-63
2023/05/10 10:27:33;;;;;;;11.77;6.38;;;16.80;99.90;;;;;;5065240;28;20090;-61
2023/05/10 10:30:07;;;;;;;11.68;5.38;;;16.50;99.90;;;;;;5065763;28;20025;-62
2023/05/10 10:32:52;;;;;;;13.93;5.82;;;16.20;99.90;;;;;;5063765;28;20094;-62
2023/05/10 10:35:18;;;;;;;16.00;5.85;;;15.90;99.90;;;;;;5068626;28;20085;-62
2023/05/10 10:37:46;;;;;;;14.25;6.32;;;15.70;99.90;;;;;;5065450;28;20110;-60
2023/05/10 10:40:32;;;;;;;17.52;7.00;;;15.70;99.90;;;;;;5064031;28;20016;-63
2023/05/10 10:42:58;;;;;;;17.33;7.25;;;15.60;99.90;;;;;;5067418;28;20016;-62
2023/05/10 10:45:25;;;;;;;15.50;6.97;;;15.80;99.90;;;;;;5065943;28;20017;-61
2023/05/10 10:48:20;;;;;;;16.92;6.18;;;15.90;99.90;;;;;;5061287;28;20044;-63
2023/05/10 10:50:46;;;;;;;15.70;6.78;;;16.00;99.90;;;;;;5064724;28;20045;-62
2023/05/10 10:53:12;;;;;;;16.83;6.38;;;16.10;99.90;;;;;;5067639;28;20032;-62
2023/05/10 10:55:47;;;;;;;9.90;5.50;;;16.00;99.90;;;;;;5067167;28;20027;-60
2023/05/10 10:58:29;;;;;;;17.33;5.82;;;16.40;99.90;;;;;;5068182;28;20112;-61
2023/05/10 11:01:16;;;;;;;12.40;5.60;;;16.40;99.90;;;;;;5060724;28;20539;-62
2023/05/10 11:04:04;;;;;;;11.65;4.70;;;16.10;99.90;;;;;;5068216;28;20031;-59
2023/05/10 11:06:34;;;;;;;9.90;4.40;;;16.00;99.90;;;;;;5063610;28;20748;-56
2023/05/10 11:09:11;;;;;;;9.48;4.47;;;15.90;99.90;;;;;;5067332;28;20114;-60
2023/05/10 11:11:50;;;;;;;12.05;4.65;;;16.10;99.90;;;;;;5061371;28;20025;-61
2023/05/10 11:14:20;;;;;;;10.02;4.78;;;16.10;99.90;;;;;;5064498;28;20075;-63
2023/05/10 11:16:45;;;;;;;7.10;3.25;;;16.20;99.90;;;;;;5065908;28;20033;-62
2023/05/10 11:19:13;;;;;;;7.78;4.00;;;16.30;99.90;;;;;;5067037;28;20032;-61
2023/05/10 11:22:11;;;;;;;7.72;3.03;;;16.20;99.90;;;;;;5061021;28;20492;-61
2023/05/10 11:24:36;;;;;;;5.55;2.50;;;16.40;99.90;;;;;;5061362;28;20465;-57
2023/05/10 11:27:02;;;;;;;5.38;3.03;;;16.40;99.90;;;;;;5065975;28;20108;-59
2023/05/10 11:29:28;;;;;;;4.15;2.42;;;16.50;99.90;;;;;;5068001;28;20094;-58
2023/05/10 11:32:00;;;;;;;7.05;3.10;;;16.50;99.90;;;;;;5068507;28;20039;-57
2023/05/10 11:34:28;;;;;;;5.07;2.90;;;16.40;99.90;;;;;;5066946;28;20025;-57
2023/05/10 11:36:55;;;;;;;11.55;3.03;;;16.30;99.90;;;;;;5071877;28;20456;-58
2023/05/10 11:39:21;;;;;;;2.55;1.90;;;16.30;99.90;;;;;;5067096;28;20546;-59
2023/05/10 11:41:50;;;;;;;4.45;2.10;;;16.30;99.90;;;;;;5067720;28;20524;-59
2023/05/10 11:44:16;;;;;;;3.42;2.20;;;16.30;99.90;;;;;;5062957;28;20024;-57
2023/05/10 11:46:41;;;;;;;4.88;2.10;;;16.20;99.90;;;;;;5068497;28;20036;-57
2023/05/10 11:49:07;;;;;;;4.10;2.10;;;16.20;99.90;;;;;;5069145;28;20025;-58
2023/05/10 11:51:36;;;;;;;2.90;2.35;;;16.20;99.90;;;;;;5068281;28;20507;-58
2023/05/10 11:54:06;;;;;;;5.18;1.90;;;16.40;99.90;;;;;;5072233;28;20024;-57
2023/05/10 11:56:32;;;;;;;2.47;1.60;;;16.50;99.90;;;;;;5069141;28;20341;-56
2023/05/10 11:58:59;;;;;;;2.85;1.60;;;16.50;99.90;;;;;;5069528;28;20100;-58
2023/05/10 12:01:26;;;;;;;3.95;1.40;;;16.40;99.90;;;;;;5062556;28;20800;-55
2023/05/10 12:03:53;;;;;;;1.90;1.23;;;16.30;99.90;;;;;;5068269;28;20032;-58
2023/05/10 12:06:20;;;;;;;3.67;1.55;;;16.40;99.90;;;;;;5067818;28;20086;-55
2023/05/10 12:08:47;;;;;;;2.53;1.35;;;16.50;99.90;;;;;;5068050;28;20081;-56
2023/05/10 12:11:15;;;;;;;1.88;1.40;;;16.60;99.90;;;;;;5065571;28;20032;-55
2023/05/10 12:13:46;;;;;;;1.92;1.42;;;16.70;99.90;;;;;;5069498;28;20035;-58
2023/05/10 12:16:19;;;;;;;1.80;1.60;;;16.80;99.90;;;;;;5069146;28;20028;-57
2023/05/10 12:18:47;;;;;;;1.98;1.50;;;16.80;99.90;;;;;;5068742;28;20031;-57
2023/05/10 12:21:15;;;;;;;3.95;1.65;;;17.10;99.90;;;;;;5081695;28;20567;-57
2023/05/10 12:23:41;;;;;;;2.92;1.27;;;17.30;99.90;;;;;;5067093;28;20111;-56
2023/05/10 12:26:09;;;;;;;3.10;1.75;;;17.40;99.90;;;;;;5070038;28;20027;-56
2023/05/10 12:28:35;;;;;;;7.97;1.75;;;17.60;99.90;;;;;;5064778;28;20070;-58
2023/05/10 12:31:02;;;;;;;3.25;1.80;;;17.80;99.90;;;;;;5068157;28;20052;-59
2023/05/10 12:33:36;;;;;;;1.60;1.35;;;17.40;99.90;;;;;;5066163;28;20036;-58
2023/05/10 12:36:02;;;;;;;2.10;1.40;;;17.80;99.90;;;;;;5062553;28;20033;-58